Time;durP1;ratioP1;P1;durP2;ratioP2;P2;SDS_P1;SDS_P2;PMS_P1;PMS_P2;Temp;Humidity;BMP_temperature;BMP_pressure;BME280_temperature;BME280_humidity;BME280_pressure;Samples;Min_cycle;Max_cycle;Signal;HPM_P1;HPM_P2
2023/07/08 00:00:47;;;;;;;8.75;5.35;;;23.80;55.90;;;;;;5031981;28;20021;-69
2023/07/08 00:03:14;;;;;;;9.32;5.25;;;23.80;56.00;;;;;;5030786;28;20029;-70
2023/07/08 00:05:40;;;;;;;8.77;5.40;;;23.80;56.10;;;;;;5027823;28;20152;-77
2023/07/08 00:08:05;;;;;;;8.27;4.88;;;23.80;55.70;;;;;;5031196;28;20148;-77
2023/07/08 00:10:31;;;;;;;10.48;5.32;;;23.80;55.60;;;;;;5035205;28;20026;-78
2023/07/08 00:12:58;;;;;;;8.43;5.07;;;23.80;55.50;;;;;;5035696;28;20061;-76
2023/07/08 00:15:32;;;;;;;8.85;4.85;;;23.70;55.40;;;;;;5034255;28;20029;-77
2023/07/08 00:18:00;;;;;;;9.85;5.00;;;23.70;55.40;;;;;;5034657;28;20056;-76
2023/07/08 00:20:38;;;;;;;8.25;5.03;;;23.60;55.60;;;;;;5038675;28;20113;-75
2023/07/08 00:23:05;;;;;;;8.50;5.43;;;23.60;56.00;;;;;;5037859;28;20089;-76
2023/07/08 00:25:32;;;;;;;10.15;4.82;;;23.60;55.70;;;;;;5042399;28;20029;-75
2023/07/08 00:28:02;;;;;;;11.07;5.95;;;23.50;56.00;;;;;;5042053;28;20025;-75
2023/07/08 00:30:32;;;;;;;10.68;5.45;;;23.50;55.90;;;;;;5041077;28;20026;-74
2023/07/08 00:32:59;;;;;;;9.25;5.63;;;23.50;56.00;;;;;;5044210;28;20028;-76
2023/07/08 00:35:39;;;;;;;7.80;4.97;;;23.40;56.10;;;;;;5044021;28;20021;-75
2023/07/08 00:38:17;;;;;;;8.52;4.93;;;23.40;56.70;;;;;;5034180;28;20029;-75
2023/07/08 00:40:57;;;;;;;9.75;5.75;;;23.30;56.90;;;;;;5041284;28;20081;-75
2023/07/08 00:43:49;;;;;;;10.30;4.55;;;23.20;57.20;;;;;;5041795;28;20048;-76
2023/07/08 00:46:29;;;;;;;9.25;4.97;;;23.20;57.40;;;;;;5025871;28;20033;-75
2023/07/08 00:49:06;;;;;;;6.72;4.60;;;23.20;57.70;;;;;;5046509;28;20036;-76
2023/07/08 00:51:39;;;;;;;10.45;5.13;;;23.10;57.90;;;;;;5039896;28;20029;-76
2023/07/08 00:54:12;;;;;;;11.32;5.40;;;23.00;57.90;;;;;;5044753;28;20033;-75
2023/07/08 00:56:47;;;;;;;9.50;5.97;;;22.90;58.50;;;;;;5041322;28;20026;-75
2023/07/08 00:59:22;;;;;;;9.45;5.55;;;22.90;58.80;;;;;;5036756;28;20435;-75
2023/07/08 01:01:49;;;;;;;11.73;5.85;;;22.80;58.60;;;;;;5034597;28;20032;-75
2023/07/08 01:04:23;;;;;;;7.22;4.85;;;22.80;58.90;;;;;;5034155;28;20021;-76
2023/07/08 01:06:57;;;;;;;8.40;5.15;;;22.70;58.90;;;;;;5032223;28;20120;-75
2023/07/08 01:09:30;;;;;;;9.43;5.20;;;22.70;58.80;;;;;;5034448;28;20034;-75
2023/07/08 01:11:58;;;;;;;;;;;22.70;58.80;;;;;;5037646;28;20113;-74
2023/07/08 01:14:27;;;;;;;8.57;5.47;;;22.60;58.90;;;;;;5034434;28;20362;-76
2023/07/08 01:16:53;;;;;;;12.00;5.57;;;22.60;58.90;;;;;;5032891;28;20428;-76
2023/07/08 01:19:32;;;;;;;9.77;4.95;;;22.60;59.20;;;;;;5033469;28;20072;-76
2023/07/08 01:22:00;;;;;;;12.30;5.78;;;22.60;59.20;;;;;;5035037;28;20033;-75
2023/07/08 01:24:29;;;;;;;10.20;6.28;;;22.50;59.20;;;;;;5036897;28;20467;-76
2023/07/08 01:26:55;;;;;;;10.10;5.25;;;22.50;59.50;;;;;;5041957;28;20017;-75
2023/07/08 01:29:21;;;;;;;8.07;5.38;;;22.50;59.60;;;;;;5034659;28;20047;-75
2023/07/08 01:31:48;;;;;;;11.52;6.07;;;22.40;59.50;;;;;;5051013;28;20018;-75
2023/07/08 01:34:18;;;;;;;8.23;5.70;;;22.40;59.60;;;;;;5031929;28;20088;-76
2023/07/08 01:36:56;;;;;;;11.35;5.55;;;22.40;59.90;;;;;;5035150;28;20025;-76
2023/07/08 01:39:24;;;;;;;9.30;4.78;;;22.40;60.10;;;;;;5033782;28;20029;-75
2023/07/08 01:41:50;;;;;;;9.18;5.93;;;22.30;60.00;;;;;;5035377;28;20028;-76
2023/07/08 01:44:27;;;;;;;11.27;5.32;;;22.30;60.10;;;;;;5034648;28;20026;-75
2023/07/08 01:46:55;;;;;;;9.63;5.72;;;22.30;60.00;;;;;;5041535;28;20395;-75
2023/07/08 01:49:21;;;;;;;9.25;5.85;;;22.40;60.00;;;;;;5033849;28;20111;-75
2023/07/08 01:51:48;;;;;;;8.50;5.28;;;22.40;60.10;;;;;;5034634;28;20109;-75
2023/07/08 01:54:14;;;;;;;9.35;5.53;;;22.40;60.20;;;;;;5042012;28;20021;-77
2023/07/08 01:56:39;;;;;;;9.40;5.78;;;22.40;60.30;;;;;;5038582;28;20052;-76
2023/07/08 01:59:05;;;;;;;9.63;5.55;;;22.40;60.20;;;;;;5053688;28;20032;-75
2023/07/08 02:01:30;;;;;;;8.57;5.25;;;22.40;60.40;;;;;;5031922;28;20476;-75
2023/07/08 02:03:56;;;;;;;8.45;5.20;;;22.30;60.20;;;;;;5046760;28;20549;-77
2023/07/08 02:06:21;;;;;;;9.68;6.13;;;22.40;60.30;;;;;;5035025;28;20048;-77
2023/07/08 02:08:47;;;;;;;11.27;5.60;;;22.40;60.70;;;;;;5038024;28;20096;-77
2023/07/08 02:11:13;;;;;;;8.88;5.75;;;22.30;60.80;;;;;;5033903;28;20365;-76
2023/07/08 02:13:38;;;;;;;8.18;4.95;;;22.30;60.60;;;;;;5037051;28;20448;-75
2023/07/08 02:16:06;;;;;;;9.30;5.63;;;22.30;61.00;;;;;;5031120;28;20025;-76
2023/07/08 02:18:32;;;;;;;10.95;6.40;;;22.30;61.10;;;;;;5038693;28;20033;-77
2023/07/08 02:20:58;;;;;;;10.63;5.82;;;22.30;61.30;;;;;;5034319;28;20112;-76
2023/07/08 02:23:25;;;;;;;9.85;5.70;;;22.30;61.40;;;;;;5038834;28;20021;-76
2023/07/08 02:25:55;;;;;;;7.88;5.22;;;22.10;61.50;;;;;;5036369;28;20129;-77
2023/07/08 02:28:21;;;;;;;8.40;5.32;;;22.10;61.70;;;;;;5043296;28;20048;-75
2023/07/08 02:30:47;;;;;;;10.48;5.32;;;22.10;61.20;;;;;;5031166;28;20156;-76
2023/07/08 02:33:17;;;;;;;10.65;5.95;;;22.00;61.40;;;;;;5033070;28;20013;-77
2023/07/08 02:35:43;;;;;;;8.25;5.38;;;22.00;61.30;;;;;;5032971;28;20419;-77
2023/07/08 02:38:08;;;;;;;9.45;6.25;;;22.00;61.40;;;;;;5028627;28;20026;-77
2023/07/08 02:40:34;;;;;;;9.00;5.05;;;22.00;61.40;;;;;;5030801;28;20026;-77
2023/07/08 02:42:59;;;;;;;8.10;5.07;;;22.00;61.70;;;;;;5032586;28;20060;-76
2023/07/08 02:45:25;;;;;;;11.60;6.03;;;21.90;61.60;;;;;;5034119;28;20408;-76
2023/07/08 02:47:50;;;;;;;8.57;5.00;;;21.90;61.70;;;;;;5035170;28;20076;-77
2023/07/08 02:50:18;;;;;;;10.75;5.78;;;21.90;62.10;;;;;;5036125;28;20026;-76
2023/07/08 02:52:44;;;;;;;10.57;6.10;;;21.90;62.30;;;;;;5033671;28;20025;-76
2023/07/08 02:55:10;;;;;;;8.38;5.22;;;21.90;62.20;;;;;;5038528;28;20073;-77
2023/07/08 02:57:35;;;;;;;8.80;5.53;;;21.90;62.40;;;;;;5032287;28;20396;-76
2023/07/08 03:00:04;;;;;;;9.90;5.25;;;21.90;62.70;;;;;;5032559;28;20029;-77
2023/07/08 03:02:29;;;;;;;10.93;5.68;;;21.90;62.80;;;;;;5032089;28;20029;-76
2023/07/08 03:04:58;;;;;;;9.77;6.10;;;21.80;63.10;;;;;;5029641;28;20124;-76
2023/07/08 03:07:24;;;;;;;10.48;5.30;;;21.80;63.30;;;;;;5034416;28;20026;-77
2023/07/08 03:09:50;;;;;;;10.10;5.47;;;21.80;63.30;;;;;;5036571;28;20029;-76
2023/07/08 03:12:15;;;;;;;10.45;5.88;;;21.70;63.50;;;;;;5029054;28;20041;-76
2023/07/08 03:14:41;;;;;;;11.45;6.18;;;21.70;63.80;;;;;;5035034;28;20028;-75
2023/07/08 03:17:07;;;;;;;13.20;6.20;;;21.60;64.00;;;;;;5028385;28;20030;-75
2023/07/08 03:19:32;;;;;;;10.38;5.70;;;21.60;63.90;;;;;;5033291;28;20121;-76
2023/07/08 03:21:58;;;;;;;9.98;6.05;;;21.60;64.20;;;;;;5037312;28;20033;-77
2023/07/08 03:24:24;;;;;;;9.77;5.82;;;21.50;64.10;;;;;;5030310;28;20076;-76
2023/07/08 03:26:54;;;;;;;10.48;5.68;;;21.60;64.10;;;;;;5032635;28;20034;-76
2023/07/08 03:29:20;;;;;;;11.55;6.03;;;21.60;64.40;;;;;;5032694;28;20052;-76
2023/07/08 03:31:45;;;;;;;8.70;5.75;;;21.50;65.10;;;;;;5037231;28;21029;-76
2023/07/08 03:34:13;;;;;;;10.10;6.03;;;21.50;64.90;;;;;;5033592;28;20025;-76
2023/07/08 03:36:50;;;;;;;12.50;5.68;;;21.50;65.20;;;;;;5031993;28;20034;-76
2023/07/08 03:39:23;;;;;;;11.80;6.75;;;21.50;65.50;;;;;;5029320;28;20076;-78
2023/07/08 03:41:50;;;;;;;8.93;5.75;;;21.40;65.40;;;;;;5035019;28;20029;-78
2023/07/08 03:44:16;;;;;;;9.82;5.20;;;21.40;65.40;;;;;;5034241;28;20026;-78
2023/07/08 03:46:46;;;;;;;11.27;6.20;;;21.40;65.40;;;;;;5032684;28;20047;-78
2023/07/08 03:49:12;;;;;;;11.48;5.90;;;21.50;65.50;;;;;;5034085;28;20035;-78
2023/07/08 03:51:39;;;;;;;11.65;5.75;;;21.40;65.30;;;;;;5033880;28;20104;-77
2023/07/08 03:54:08;;;;;;;13.52;5.93;;;21.40;65.20;;;;;;5033880;28;20026;-77
2023/07/08 03:56:34;;;;;;;8.60;5.65;;;21.40;65.70;;;;;;5035488;28;20021;-77
2023/07/08 03:58:59;;;;;;;16.42;6.13;;;21.40;65.90;;;;;;5034515;28;20032;-78
2023/07/08 04:01:26;;;;;;;10.35;5.38;;;21.40;66.30;;;;;;5035077;28;20036;-77
2023/07/08 04:03:53;;;;;;;12.35;5.63;;;21.50;66.30;;;;;;5033441;28;20026;-78
2023/07/08 04:06:19;;;;;;;9.77;6.03;;;21.50;66.60;;;;;;5034141;28;20387;-78
2023/07/08 04:08:46;;;;;;;10.38;6.03;;;21.50;66.50;;;;;;5035460;28;20369;-76
2023/07/08 04:11:17;;;;;;;10.00;6.22;;;21.50;66.60;;;;;;5035368;28;20052;-77
2023/07/08 04:13:43;;;;;;;8.43;5.20;;;21.40;66.30;;;;;;5045019;28;20105;-77
2023/07/08 04:16:19;;;;;;;9.25;5.18;;;21.50;66.60;;;;;;5035333;28;20048;-78
2023/07/08 04:18:44;;;;;;;14.30;6.95;;;21.60;66.40;;;;;;5035345;28;20021;-78
2023/07/08 04:21:10;;;;;;;9.15;5.45;;;21.60;67.20;;;;;;5042330;28;20047;-77
2023/07/08 04:23:35;;;;;;;9.45;5.60;;;21.60;67.00;;;;;;5055606;28;20021;-76
2023/07/08 04:26:01;;;;;;;11.18;5.47;;;21.70;67.00;;;;;;5055756;28;20037;-77
2023/07/08 04:28:27;;;;;;;11.55;6.00;;;21.70;67.00;;;;;;5044308;28;20112;-77
2023/07/08 04:30:53;;;;;;;8.05;5.25;;;21.80;67.10;;;;;;5038157;28;20060;-77
2023/07/08 04:33:18;;;;;;;9.07;5.78;;;21.80;66.70;;;;;;5032876;28;20443;-77
2023/07/08 04:35:45;;;;;;;10.65;5.28;;;21.90;66.80;;;;;;5038260;28;20025;-76
2023/07/08 04:38:21;;;;;;;10.90;5.45;;;21.90;66.90;;;;;;5033837;28;20026;-76
2023/07/08 04:40:48;;;;;;;9.00;5.50;;;21.90;67.00;;;;;;5033896;28;20105;-76
2023/07/08 04:43:14;;;;;;;10.05;5.53;;;22.00;67.00;;;;;;5036563;28;20028;-77
2023/07/08 04:45:42;;;;;;;7.88;5.00;;;22.00;66.90;;;;;;5040215;28;20018;-77
2023/07/08 04:48:14;;;;;;;11.55;5.53;;;22.00;67.10;;;;;;5040923;28;20070;-77
2023/07/08 04:50:44;;;;;;;9.48;5.15;;;22.10;67.60;;;;;;5034616;28;20018;-76
2023/07/08 04:53:11;;;;;;;9.98;5.72;;;22.20;67.30;;;;;;5033327;28;20022;-76
2023/07/08 04:55:39;;;;;;;10.25;5.85;;;22.30;67.90;;;;;;5042091;28;20152;-76
2023/07/08 04:58:05;;;;;;;9.23;5.65;;;22.40;68.80;;;;;;5035564;28;20357;-76
2023/07/08 05:00:30;;;;;;;8.05;5.25;;;22.50;69.00;;;;;;5033078;28;20037;-77
2023/07/08 05:02:56;;;;;;;9.65;6.28;;;22.60;69.00;;;;;;5032880;28;20435;-77
2023/07/08 05:05:22;;;;;;;10.15;6.18;;;22.70;69.20;;;;;;5036548;28;20025;-77
2023/07/08 05:07:49;;;;;;;10.45;5.38;;;22.70;68.90;;;;;;5037810;28;20029;-76
2023/07/08 05:10:15;;;;;;;10.10;6.20;;;22.80;68.60;;;;;;5038998;28;20017;-77
2023/07/08 05:12:41;;;;;;;10.60;6.35;;;22.70;68.10;;;;;;5039277;28;20025;-77
2023/07/08 05:15:07;;;;;;;11.15;6.43;;;22.70;67.90;;;;;;5038823;28;20053;-77
2023/07/08 05:17:33;;;;;;;10.23;5.82;;;22.60;68.10;;;;;;5036776;28;20033;-77
2023/07/08 05:20:00;;;;;;;10.18;5.57;;;22.50;68.50;;;;;;5037763;28;20484;-77
2023/07/08 05:22:26;;;;;;;10.00;5.53;;;22.50;68.70;;;;;;5035064;28;20503;-77
2023/07/08 05:24:55;;;;;;;10.43;5.75;;;22.50;68.70;;;;;;5036283;28;20149;-76
2023/07/08 05:27:24;;;;;;;10.77;5.72;;;22.50;68.90;;;;;;5037823;28;20022;-77
2023/07/08 05:29:50;;;;;;;7.88;5.20;;;22.40;69.00;;;;;;5057380;28;20476;-77
2023/07/08 05:32:16;;;;;;;13.15;6.00;;;22.40;69.40;;;;;;5056183;28;20032;-77
2023/07/08 05:34:44;;;;;;;10.43;5.88;;;22.40;69.60;;;;;;5056897;28;20021;-77
2023/07/08 05:37:10;;;;;;;13.90;6.25;;;22.50;69.80;;;;;;5055450;28;20480;-77
2023/07/08 05:39:36;;;;;;;14.02;5.93;;;22.50;69.60;;;;;;5036723;28;20026;-77
2023/07/08 05:42:05;;;;;;;9.13;5.53;;;22.60;69.70;;;;;;5049381;28;20053;-76
2023/07/08 05:44:31;;;;;;;12.93;5.40;;;22.60;69.80;;;;;;5054872;28;20036;-75
2023/07/08 05:46:56;;;;;;;10.05;5.68;;;22.60;69.90;;;;;;5040758;28;20022;-77
2023/07/08 05:49:22;;;;;;;10.60;6.10;;;22.70;69.70;;;;;;5039670;28;20037;-78
2023/07/08 05:51:47;;;;;;;8.52;5.38;;;22.60;69.50;;;;;;5037017;28;20395;-77
2023/07/08 05:54:14;;;;;;;9.88;5.82;;;22.60;69.70;;;;;;5037112;28;20212;-76
2023/07/08 05:56:39;;;;;;;11.38;5.78;;;22.60;69.80;;;;;;5034925;28;20072;-70
2023/07/08 05:59:05;;;;;;;9.23;5.47;;;22.60;70.10;;;;;;5033640;28;20029;-70
2023/07/08 06:01:31;;;;;;;8.90;5.13;;;22.60;70.20;;;;;;5034800;28;20037;-70
2023/07/08 06:04:00;;;;;;;9.88;5.80;;;22.60;70.80;;;;;;5032586;28;20545;-70
2023/07/08 06:06:27;;;;;;;10.77;5.43;;;22.60;70.20;;;;;;5033056;28;20037;-69
2023/07/08 06:08:53;;;;;;;11.73;6.53;;;22.60;70.30;;;;;;5033101;28;20025;-71
2023/07/08 06:11:19;;;;;;;8.10;5.30;;;22.50;69.80;;;;;;5035616;28;20053;-69
2023/07/08 06:13:45;;;;;;;11.48;5.80;;;22.50;69.90;;;;;;5034989;28;20067;-70
2023/07/08 06:16:10;;;;;;;11.65;6.00;;;22.50;70.00;;;;;;5028782;28;20053;-71
2023/07/08 06:18:36;;;;;;;10.20;6.07;;;22.50;70.00;;;;;;5032440;28;20034;-71
2023/07/08 06:21:02;;;;;;;11.05;5.85;;;22.50;70.20;;;;;;5032196;28;20047;-70
2023/07/08 06:23:28;;;;;;;9.88;5.93;;;22.50;69.90;;;;;;5033972;28;20034;-71
2023/07/08 06:25:54;;;;;;;10.40;5.93;;;22.50;70.00;;;;;;5048971;23;20099;-69
2023/07/08 06:28:20;;;;;;;9.70;5.32;;;22.60;70.20;;;;;;5004768;28;20029;-69
2023/07/08 06:30:46;;;;;;;10.13;6.00;;;22.60;70.20;;;;;;5006682;28;20053;-69
2023/07/08 06:33:12;;;;;;;8.52;5.45;;;22.60;69.90;;;;;;5006561;28;20465;-70
2023/07/08 06:35:39;;;;;;;9.88;5.95;;;22.60;70.00;;;;;;5003247;28;20142;-69
2023/07/08 06:38:06;;;;;;;11.57;5.65;;;22.70;70.00;;;;;;5002863;28;20484;-69
2023/07/08 06:40:32;;;;;;;9.63;5.30;;;22.70;70.10;;;;;;5004688;28;20025;-69
2023/07/08 06:42:57;;;;;;;10.80;5.80;;;22.70;70.30;;;;;;5003184;28;20042;-69
2023/07/08 06:45:23;;;;;;;10.05;5.60;;;22.70;70.80;;;;;;5000583;28;20041;-69
2023/07/08 06:47:49;;;;;;;10.60;5.25;;;22.80;70.60;;;;;;5001249;28;20041;-70
2023/07/08 06:50:15;;;;;;;12.20;5.32;;;22.80;70.50;;;;;;5007384;28;20037;-70
2023/07/08 06:52:40;;;;;;;10.65;5.60;;;22.80;70.30;;;;;;5003256;28;20108;-68
2023/07/08 06:55:08;;;;;;;11.02;4.68;;;22.90;71.00;;;;;;5004744;28;20208;-70
2023/07/08 06:57:35;;;;;;;8.77;4.65;;;22.90;70.80;;;;;;5005770;28;20022;-68
2023/07/08 07:00:00;;;;;;;10.07;5.20;;;23.00;70.90;;;;;;5006295;28;20029;-71
2023/07/08 07:02:27;;;;;;;9.93;5.25;;;23.00;70.60;;;;;;5002203;28;20045;-69
2023/07/08 07:04:53;;;;;;;9.45;4.88;;;23.10;71.50;;;;;;5010871;28;20034;-74
2023/07/08 07:07:18;;;;;;;8.55;5.15;;;23.10;71.70;;;;;;5010788;28;20163;-75
2023/07/08 07:09:44;;;;;;;10.50;4.75;;;23.20;72.00;;;;;;4993124;28;20481;-74
2023/07/08 07:12:10;;;;;;;8.30;4.45;;;23.20;71.70;;;;;;4993141;28;20038;-76
2023/07/08 07:14:35;;;;;;;8.43;5.15;;;23.20;72.00;;;;;;4993295;28;20037;-75
2023/07/08 07:17:01;;;;;;;8.00;4.45;;;23.30;71.90;;;;;;4993155;28;20026;-75
2023/07/08 07:19:27;;;;;;;7.88;3.95;;;23.40;71.90;;;;;;4991690;28;20074;-75
2023/07/08 07:21:52;;;;;;;8.18;3.97;;;23.50;71.70;;;;;;4993434;28;20034;-76
2023/07/08 07:24:18;;;;;;;6.20;3.13;;;23.60;71.40;;;;;;4992562;28;20026;-75
2023/07/08 07:26:44;;;;;;;6.18;3.05;;;23.70;71.20;;;;;;4991292;28;20121;-75
2023/07/08 07:29:10;;;;;;;6.88;3.53;;;23.80;70.90;;;;;;4992867;28;20122;-75
2023/07/08 07:31:39;;;;;;;6.32;3.13;;;23.90;70.60;;;;;;5021046;28;20022;-76
2023/07/08 07:34:05;;;;;;;7.05;3.30;;;24.00;70.40;;;;;;4996092;28;20030;-78
2023/07/08 07:36:31;;;;;;;5.38;2.40;;;24.10;70.30;;;;;;5010863;28;20047;-77
2023/07/08 07:38:56;;;;;;;5.63;3.17;;;24.10;70.30;;;;;;5012366;28;20384;-77
2023/07/08 07:41:22;;;;;;;5.85;2.45;;;24.20;70.20;;;;;;5012215;28;20022;-74
2023/07/08 07:43:47;;;;;;;7.47;2.90;;;24.30;69.70;;;;;;5010171;28;20026;-73
2023/07/08 07:46:13;;;;;;;7.88;2.80;;;24.30;69.60;;;;;;5010733;28;20079;-74
2023/07/08 07:48:39;;;;;;;5.47;2.50;;;24.40;69.90;;;;;;5012064;28;20029;-74
2023/07/08 07:51:07;;;;;;;6.38;2.70;;;24.50;70.30;;;;;;5009888;28;20095;-74
2023/07/08 07:53:32;;;;;;;4.38;2.50;;;24.60;70.40;;;;;;5012367;28;20019;-74
2023/07/08 07:55:59;;;;;;;4.95;1.90;;;24.60;70.30;;;;;;5012161;28;20026;-73
2023/07/08 07:58:25;;;;;;;5.30;2.80;;;24.60;70.00;;;;;;5012638;28;20029;-74
2023/07/08 08:00:51;;;;;;;4.60;2.70;;;24.60;69.80;;;;;;5012543;28;20088;-74
2023/07/08 08:03:17;;;;;;;6.47;2.40;;;24.60;69.80;;;;;;5012609;28;20054;-73
2023/07/08 08:05:43;;;;;;;4.03;2.47;;;24.60;69.70;;;;;;5012458;28;20101;-73
2023/07/08 08:08:08;;;;;;;7.97;2.60;;;24.70;69.70;;;;;;5012560;28;20030;-73
2023/07/08 08:10:35;;;;;;;7.80;2.65;;;24.70;70.30;;;;;;5012172;28;20109;-74
2023/07/08 08:13:02;;;;;;;7.20;2.60;;;24.80;70.90;;;;;;5012325;28;20026;-74
2023/07/08 08:15:28;;;;;;;6.55;2.63;;;24.70;69.90;;;;;;5012456;28;20069;-74
2023/07/08 08:17:53;;;;;;;5.95;2.40;;;24.80;69.90;;;;;;5012612;28;20030;-74
2023/07/08 08:20:21;;;;;;;4.53;2.83;;;24.80;70.30;;;;;;5012074;28;20037;-74
2023/07/08 08:22:46;;;;;;;4.68;2.70;;;24.80;69.60;;;;;;5011683;28;20396;-74
2023/07/08 08:25:13;;;;;;;5.53;2.72;;;24.90;69.30;;;;;;5013284;28;20034;-74
2023/07/08 08:27:39;;;;;;;11.48;3.45;;;24.80;69.00;;;;;;5012472;28;20026;-73
2023/07/08 08:30:06;;;;;;;6.13;2.90;;;24.80;69.30;;;;;;5011846;28;20030;-74
2023/07/08 08:32:31;;;;;;;5.43;3.15;;;24.90;69.40;;;;;;5010650;28;20033;-74
2023/07/08 08:34:57;;;;;;;7.32;3.40;;;24.90;68.90;;;;;;5011921;28;20030;-74
2023/07/08 08:37:22;;;;;;;7.63;3.15;;;24.80;69.50;;;;;;5011967;28;20033;-74
2023/07/08 08:39:48;;;;;;;8.60;3.22;;;24.80;69.20;;;;;;5014055;28;20029;-74
2023/07/08 08:42:30;;;;;;;6.32;2.75;;;24.80;69.40;;;;;;5015522;28;20045;-73
2023/07/08 08:44:59;;;;;;;6.55;3.55;;;24.80;69.20;;;;;;5015520;28;20026;-74
2023/07/08 08:47:38;;;;;;;6.97;3.45;;;24.70;69.60;;;;;;5015543;28;20037;-74
2023/07/08 08:50:44;;;;;;;8.73;4.10;;;24.80;69.60;;;;;;5015366;28;20038;-74
2023/07/08 08:53:13;;;;;;;9.68;4.07;;;24.70;70.70;;;;;;5009729;28;20036;-73
2023/07/08 08:55:40;;;;;;;6.82;3.63;;;24.70;71.20;;;;;;5015236;28;20511;-74
2023/07/08 08:58:20;;;;;;;8.43;3.95;;;24.80;71.10;;;;;;5015411;28;20125;-74
2023/07/08 09:00:54;;;;;;;6.95;3.75;;;24.70;70.30;;;;;;5013904;28;20036;-74
2023/07/08 09:03:29;;;;;;;6.45;3.28;;;24.80;70.30;;;;;;5015411;28;20101;-74
2023/07/08 09:05:58;;;;;;;6.85;3.40;;;24.70;70.30;;;;;;5013883;28;20018;-74
2023/07/08 09:08:29;;;;;;;7.70;3.50;;;24.70;70.90;;;;;;5014190;28;20030;-74
2023/07/08 09:11:12;;;;;;;6.93;3.83;;;24.80;70.00;;;;;;5013933;28;20399;-74
2023/07/08 09:13:38;;;;;;;6.33;3.60;;;24.70;69.70;;;;;;5013759;28;20037;-74
2023/07/08 09:16:39;;;;;;;6.65;3.65;;;24.70;69.90;;;;;;5013689;28;20251;-74
2023/07/08 09:19:32;;;;;;;5.88;3.38;;;24.70;70.20;;;;;;5014930;28;20030;-74
2023/07/08 09:21:57;;;;;;;5.40;3.80;;;24.70;70.10;;;;;;5010170;28;20338;-74
2023/07/08 09:25:01;;;;;;;6.97;3.85;;;24.60;70.30;;;;;;5008737;28;20084;-74
2023/07/08 09:27:27;;;;;;;8.68;4.13;;;24.60;70.60;;;;;;4997994;28;20080;-75
2023/07/08 09:29:53;;;;;;;8.18;3.95;;;24.50;70.80;;;;;;5011435;28;20042;-75
2023/07/08 09:32:20;;;;;;;5.82;3.00;;;24.60;71.10;;;;;;5006781;28;20026;-75
2023/07/08 09:34:49;;;;;;;5.57;2.90;;;24.50;71.10;;;;;;5003313;28;20033;-75
2023/07/08 09:37:24;;;;;;;10.00;4.00;;;24.50;71.40;;;;;;5005957;28;20026;-75
2023/07/08 09:39:51;;;;;;;8.70;3.72;;;24.50;71.60;;;;;;5008258;28;20018;-74
2023/07/08 09:42:19;;;;;;;8.65;3.63;;;24.50;71.70;;;;;;5007465;28;20025;-75
2023/07/08 09:44:45;;;;;;;7.75;3.33;;;24.60;71.60;;;;;;5008426;28;20030;-75
2023/07/08 09:47:22;;;;;;;5.97;3.85;;;24.60;71.80;;;;;;5013387;28;20033;-74
2023/07/08 09:49:48;;;;;;;5.07;3.28;;;24.60;71.10;;;;;;5005272;28;20109;-74
2023/07/08 09:52:14;;;;;;;5.43;3.15;;;24.70;70.90;;;;;;5008397;28;20085;-76
2023/07/08 09:54:44;;;;;;;12.52;3.38;;;24.80;71.10;;;;;;5010115;28;20030;-75
2023/07/08 09:57:19;;;;;;;7.85;3.22;;;24.90;71.30;;;;;;5005107;28;20081;-75
2023/07/08 09:59:52;;;;;;;7.22;3.42;;;25.00;71.00;;;;;;5007492;28;20053;-74
2023/07/08 10:02:35;;;;;;;5.28;2.90;;;25.10;71.00;;;;;;5005146;28;20062;-75
2023/07/08 10:05:13;;;;;;;5.20;3.20;;;25.20;70.70;;;;;;5006105;28;20543;-75
2023/07/08 10:07:38;;;;;;;7.32;2.88;;;25.30;71.10;;;;;;5006246;28;20030;-74
2023/07/08 10:10:09;;;;;;;7.78;2.92;;;25.40;71.80;;;;;;5010019;28;20435;-75
2023/07/08 10:12:37;;;;;;;8.43;3.35;;;25.50;71.20;;;;;;5008104;28;20026;-74
2023/07/08 10:15:18;;;;;;;8.38;3.08;;;25.60;71.20;;;;;;5006744;28;20086;-74
2023/07/08 10:17:44;;;;;;;6.88;2.70;;;25.80;71.00;;;;;;5012950;28;20018;-75
2023/07/08 10:20:13;;;;;;;6.82;2.97;;;25.90;70.90;;;;;;5009038;28;20026;-73
2023/07/08 10:22:43;;;;;;;6.10;2.97;;;25.90;70.50;;;;;;5008337;28;20496;-73
2023/07/08 10:25:34;;;;;;;5.88;2.70;;;26.00;70.40;;;;;;5006301;28;20550;-73
2023/07/08 10:28:34;;;;;;;6.95;2.47;;;26.20;70.20;;;;;;5012153;28;20076;-73
2023/07/08 10:31:05;;;;;;;7.22;2.80;;;26.30;69.80;;;;;;5012747;28;20486;-73
2023/07/08 10:33:40;;;;;;;6.05;2.80;;;26.40;69.40;;;;;;5009845;28;20353;-73
2023/07/08 10:36:47;;;;;;;4.07;2.38;;;26.50;68.80;;;;;;5009465;28;20443;-73
2023/07/08 10:39:48;;;;;;;3.47;2.22;;;26.70;67.90;;;;;;5009104;28;20030;-73
2023/07/08 10:42:23;;;;;;;12.73;2.67;;;26.90;66.20;;;;;;5013809;28;20117;-73
2023/07/08 10:45:07;;;;;;;3.45;1.88;;;27.00;65.50;;;;;;5011893;28;20041;-73
2023/07/08 10:47:41;;;;;;;4.43;2.35;;;27.00;64.50;;;;;;5013653;28;20037;-73
2023/07/08 10:50:30;;;;;;;6.18;2.40;;;27.00;65.10;;;;;;5008954;28;20022;-73
2023/07/08 10:53:17;;;;;;;4.32;2.33;;;27.10;65.30;;;;;;5011637;28;20486;-73
2023/07/08 10:55:55;;;;;;;5.43;2.22;;;27.10;65.20;;;;;;5014654;28;20149;-73
2023/07/08 10:58:47;;;;;;;5.63;2.97;;;27.10;65.50;;;;;;5009360;28;20029;-73
2023/07/08 11:01:44;;;;;;;3.30;2.10;;;27.20;65.30;;;;;;5010714;28;20026;-73
2023/07/08 11:04:40;;;;;;;3.58;1.95;;;27.30;65.10;;;;;;5011070;28;20030;-73
2023/07/08 11:07:33;;;;;;;8.30;2.42;;;27.20;65.30;;;;;;5010800;28;20038;-73
2023/07/08 11:10:13;;;;;;;5.72;2.80;;;27.20;65.30;;;;;;5002861;28;20026;-73
2023/07/08 11:12:55;;;;;;;4.43;2.67;;;27.30;65.80;;;;;;5008880;28;20057;-73
2023/07/08 11:15:32;;;;;;;6.30;2.63;;;27.40;65.90;;;;;;5008887;28;20508;-73
2023/07/08 11:18:17;;;;;;;4.45;2.22;;;27.40;65.60;;;;;;5011973;28;20120;-73
2023/07/08 11:21:05;;;;;;;4.22;2.10;;;27.50;65.60;;;;;;5013546;28;20022;-73
2023/07/08 11:23:39;;;;;;;4.03;2.30;;;27.60;65.40;;;;;;5006183;28;20393;-75
2023/07/08 11:26:13;;;;;;;3.50;2.25;;;27.70;65.10;;;;;;5006472;28;20042;-75
2023/07/08 11:28:38;;;;;;;4.25;2.10;;;27.70;64.80;;;;;;5007176;28;20030;-75
2023/07/08 11:31:05;;;;;;;4.75;2.15;;;27.80;64.50;;;;;;5012958;28;20108;-73
2023/07/08 11:33:33;;;;;;;4.13;1.83;;;27.80;64.30;;;;;;5009928;28;20033;-75
2023/07/08 11:36:01;;;;;;;2.28;1.73;;;27.80;64.40;;;;;;5004962;28;20057;-75
2023/07/08 11:38:27;;;;;;;3.40;1.83;;;27.70;65.10;;;;;;5006348;28;20050;-75
2023/07/08 11:41:12;;;;;;;2.90;2.03;;;27.80;65.40;;;;;;5006969;28;20100;-75
2023/07/08 11:43:50;;;;;;;6.20;2.40;;;27.80;64.80;;;;;;5005338;28;20026;-75
2023/07/08 11:46:25;;;;;;;5.15;2.65;;;27.80;64.70;;;;;;5004572;28;20026;-75
2023/07/08 11:48:53;;;;;;;3.78;2.55;;;27.90;64.00;;;;;;5008737;28;20073;-75
2023/07/08 11:51:24;;;;;;;4.97;2.40;;;27.90;64.50;;;;;;5007471;28;20025;-75
2023/07/08 11:54:03;;;;;;;4.55;2.22;;;28.00;64.10;;;;;;5007376;28;20025;-75
2023/07/08 11:56:49;;;;;;;3.75;2.15;;;28.00;64.00;;;;;;5003895;28;20054;-75
2023/07/08 11:59:19;;;;;;;4.28;2.42;;;28.00;63.80;;;;;;5008734;28;20030;-75
2023/07/08 12:01:53;;;;;;;6.80;2.50;;;28.10;63.60;;;;;;5008383;28;20029;-75
2023/07/08 12:04:28;;;;;;;5.88;2.47;;;28.20;63.70;;;;;;5004695;28;20461;-75
2023/07/08 12:07:09;;;;;;;4.05;2.38;;;28.10;63.50;;;;;;5005078;28;20491;-75
2023/07/08 12:09:37;;;;;;;5.13;2.58;;;28.20;63.40;;;;;;5003508;28;20037;-75
2023/07/08 12:12:07;;;;;;;7.55;2.38;;;28.30;63.60;;;;;;5009230;28;20451;-76
2023/07/08 12:14:32;;;;;;;5.05;2.30;;;28.40;63.30;;;;;;5013183;28;20430;-75
2023/07/08 12:16:59;;;;;;;4.07;2.50;;;28.50;63.30;;;;;;5014489;28;20116;-76
2023/07/08 12:19:28;;;;;;;4.18;2.70;;;28.50;63.20;;;;;;5011448;28;20030;-75
2023/07/08 12:21:54;;;;;;;5.63;2.03;;;28.50;63.50;;;;;;5017672;28;20484;-74
2023/07/08 12:24:26;;;;;;;5.47;3.00;;;28.50;63.50;;;;;;5017211;28;20033;-74
2023/07/08 12:26:51;;;;;;;5.93;2.40;;;28.50;63.10;;;;;;5048037;23;20103;-74
2023/07/08 12:29:17;;;;;;;4.65;2.30;;;28.60;62.90;;;;;;5040463;28;20060;-75
2023/07/08 12:31:43;;;;;;;5.40;2.55;;;28.60;62.60;;;;;;5038749;28;20143;-75
2023/07/08 12:34:16;;;;;;;3.75;2.20;;;28.60;62.80;;;;;;5038938;28;20018;-74
2023/07/08 12:36:43;;;;;;;5.30;2.33;;;28.70;62.70;;;;;;5038678;28;20144;-75
2023/07/08 12:39:14;;;;;;;3.55;1.98;;;28.70;62.50;;;;;;5038664;28;20021;-75
2023/07/08 12:41:41;;;;;;;6.65;2.35;;;28.80;62.60;;;;;;5038316;28;20053;-75
2023/07/08 12:44:23;;;;;;;4.22;2.00;;;28.90;62.60;;;;;;5038377;28;20036;-74
2023/07/08 12:46:52;;;;;;;3.85;2.35;;;28.90;62.50;;;;;;5038637;28;20474;-75
2023/07/08 12:49:19;;;;;;;4.30;2.20;;;28.90;62.20;;;;;;5038599;28;20021;-75
2023/07/08 12:51:46;;;;;;;3.47;2.35;;;29.00;62.20;;;;;;5033753;28;20048;-74
2023/07/08 12:54:13;;;;;;;3.30;2.42;;;29.00;62.10;;;;;;5030993;28;20037;-73
2023/07/08 12:56:46;;;;;;;4.20;3.22;;;29.00;62.10;;;;;;5030790;28;20036;-75